KHSB/HSB METAR and TAF weather

Enter ICAO airport designator
Station Type Date Time Source
KHSB METAR 2021/04/14 19:15 UTC NOAA

KHSB 141915Z AUTO 07007KT 020V090 10SM SCT090 17/M07 A3010 RMK AO2 T01711067


Station Type Date Time Source
KHSB Decoded METAR 2021/04/14 19:15 UTC NOAA

Harrisburg, Harrisburg-Raleigh Airport, IL, United States (KHSB) 37-48-41N 088-32-57W
Apr 14, 2021 - 03:15 PM EDT / 2021.04.14 1915 UTC
Wind: from the ENE (070 degrees) at 8 MPH (7 KT) (direction variable):0
Visibility: 10 mile(s):0
Sky conditions: partly cloudy
Temperature: 62.8 F (17.1 C)
Dew Point: 19.9 F (-6.7 C)
Relative Humidity: 18%
Pressure (altimeter): 30.1 in. Hg (1019 hPa)
ob: KHSB 141915Z AUTO 07007KT 020V090 10SM SCT090 17/M07 A3010 RMK AO2 T01711067
cycle: 19

Station Type Date Time Source
KHSB TAF UTC NOAA

Error!

Example: see airport list